sensor_id;sensor_type;location;lat;lon;timestamp;P1;durP1;ratioP1;P2;durP2;ratioP2
40503;SDS011;42292;49.048;8.374;2022-10-10T00:01:11;7.20;;;5.97;;
40503;SDS011;42292;49.048;8.374;2022-10-10T00:03:37;8.05;;;6.68;;
40503;SDS011;42292;49.048;8.374;2022-10-10T00:06:03;9.38;;;6.15;;
40503;SDS011;42292;49.048;8.374;2022-10-10T00:08:31;7.45;;;6.53;;
40503;SDS011;42292;49.048;8.374;2022-10-10T00:10:57;8.00;;;6.22;;
40503;SDS011;42292;49.048;8.374;2022-10-10T00:13:22;7.25;;;6.10;;
40503;SDS011;42292;49.048;8.374;2022-10-10T00:15:50;7.53;;;5.38;;
40503;SDS011;42292;49.048;8.374;2022-10-10T00:18:18;6.47;;;5.65;;
40503;SDS011;42292;49.048;8.374;2022-10-10T00:20:44;8.87;;;6.53;;
40503;SDS011;42292;49.048;8.374;2022-10-10T00:23:10;9.38;;;6.68;;
40503;SDS011;42292;49.048;8.374;2022-10-10T00:25:35;10.07;;;6.50;;
40503;SDS011;42292;49.048;8.374;2022-10-10T00:28:02;8.43;;;7.45;;
40503;SDS011;42292;49.048;8.374;2022-10-10T00:30:30;9.50;;;6.65;;
40503;SDS011;42292;49.048;8.374;2022-10-10T00:32:58;12.15;;;7.53;;
40503;SDS011;42292;49.048;8.374;2022-10-10T00:35:27;10.93;;;7.60;;
40503;SDS011;42292;49.048;8.374;2022-10-10T00:38:00;10.52;;;6.88;;
40503;SDS011;42292;49.048;8.374;2022-10-10T00:40:28;11.27;;;7.60;;
40503;SDS011;42292;49.048;8.374;2022-10-10T00:42:54;8.38;;;6.57;;
40503;SDS011;42292;49.048;8.374;2022-10-10T00:48:02;10.88;;;6.70;;
40503;SDS011;42292;49.048;8.374;2022-10-10T00:50:36;7.35;;;6.18;;
40503;SDS011;42292;49.048;8.374;2022-10-10T00:53:07;8.68;;;5.93;;
40503;SDS011;42292;49.048;8.374;2022-10-10T00:55:37;7.10;;;6.35;;
40503;SDS011;42292;49.048;8.374;2022-10-10T00:58:04;8.85;;;6.35;;
40503;SDS011;42292;49.048;8.374;2022-10-10T01:00:32;8.60;;;5.93;;
40503;SDS011;42292;49.048;8.374;2022-10-10T01:02:57;8.93;;;6.30;;
40503;SDS011;42292;49.048;8.374;2022-10-10T01:05:23;10.27;;;6.68;;
40503;SDS011;42292;49.048;8.374;2022-10-10T01:07:51;8.65;;;6.47;;
40503;SDS011;42292;49.048;8.374;2022-10-10T01:10:18;8.25;;;6.45;;
40503;SDS011;42292;49.048;8.374;2022-10-10T01:24:06;10.15;;;5.93;;
40503;SDS011;42292;49.048;8.374;2022-10-10T01:32:00;7.65;;;5.65;;
40503;SDS011;42292;49.048;8.374;2022-10-10T01:37:08;6.82;;;5.60;;
40503;SDS011;42292;49.048;8.374;2022-10-10T01:39:38;6.13;;;5.47;;
40503;SDS011;42292;49.048;8.374;2022-10-10T01:42:19;8.15;;;5.68;;
40503;SDS011;42292;49.048;8.374;2022-10-10T01:44:50;9.13;;;6.07;;
40503;SDS011;42292;49.048;8.374;2022-10-10T01:47:18;8.73;;;5.35;;
40503;SDS011;42292;49.048;8.374;2022-10-10T01:49:48;7.97;;;5.63;;
40503;SDS011;42292;49.048;8.374;2022-10-10T01:58:04;8.00;;;5.65;;
40503;SDS011;42292;49.048;8.374;2022-10-10T02:00:23;7.00;;;5.70;;
40503;SDS011;42292;49.048;8.374;2022-10-10T02:05:49;10.48;;;5.30;;
40503;SDS011;42292;49.048;8.374;2022-10-10T02:11:04;7.65;;;5.70;;
40503;SDS011;42292;49.048;8.374;2022-10-10T02:13:42;6.30;;;5.30;;
40503;SDS011;42292;49.048;8.374;2022-10-10T02:16:12;6.40;;;5.07;;
40503;SDS011;42292;49.048;8.374;2022-10-10T02:18:42;6.85;;;5.55;;
40503;SDS011;42292;49.048;8.374;2022-10-10T02:21:10;6.95;;;5.32;;
40503;SDS011;42292;49.048;8.374;2022-10-10T02:23:39;6.65;;;5.43;;
40503;SDS011;42292;49.048;8.374;2022-10-10T02:26:10;8.18;;;5.30;;
40503;SDS011;42292;49.048;8.374;2022-10-10T02:28:43;6.13;;;5.10;;
40503;SDS011;42292;49.048;8.374;2022-10-10T02:31:15;8.68;;;5.40;;
40503;SDS011;42292;49.048;8.374;2022-10-10T02:33:49;8.23;;;5.22;;
40503;SDS011;42292;49.048;8.374;2022-10-10T02:36:22;6.25;;;5.20;;
40503;SDS011;42292;49.048;8.374;2022-10-10T02:38:52;5.72;;;5.00;;
40503;SDS011;42292;49.048;8.374;2022-10-10T02:41:20;5.80;;;4.80;;
40503;SDS011;42292;49.048;8.374;2022-10-10T02:43:47;7.07;;;4.90;;
40503;SDS011;42292;49.048;8.374;2022-10-10T02:46:17;8.80;;;5.07;;
40503;SDS011;42292;49.048;8.374;2022-10-10T02:48:47;7.55;;;5.28;;
40503;SDS011;42292;49.048;8.374;2022-10-10T02:51:13;7.43;;;5.07;;
40503;SDS011;42292;49.048;8.374;2022-10-10T02:53:40;7.80;;;5.13;;
40503;SDS011;42292;49.048;8.374;2022-10-10T02:56:09;5.78;;;4.93;;
40503;SDS011;42292;49.048;8.374;2022-10-10T02:58:35;7.68;;;5.60;;
40503;SDS011;42292;49.048;8.374;2022-10-10T03:01:00;6.90;;;5.23;;
40503;SDS011;42292;49.048;8.374;2022-10-10T03:03:28;7.55;;;4.82;;
40503;SDS011;42292;49.048;8.374;2022-10-10T03:05:54;7.40;;;5.07;;
40503;SDS011;42292;49.048;8.374;2022-10-10T03:08:20;7.95;;;5.43;;
40503;SDS011;42292;49.048;8.374;2022-10-10T03:10:59;6.32;;;5.13;;
40503;SDS011;42292;49.048;8.374;2022-10-10T03:13:25;6.63;;;5.15;;
40503;SDS011;42292;49.048;8.374;2022-10-10T03:15:51;8.35;;;5.55;;
40503;SDS011;42292;49.048;8.374;2022-10-10T03:18:17;7.83;;;5.43;;
40503;SDS011;42292;49.048;8.374;2022-10-10T03:20:43;6.60;;;5.10;;
40503;SDS011;42292;49.048;8.374;2022-10-10T03:23:10;6.03;;;5.43;;
40503;SDS011;42292;49.048;8.374;2022-10-10T03:25:39;7.25;;;5.53;;
40503;SDS011;42292;49.048;8.374;2022-10-10T03:28:05;6.70;;;5.60;;
40503;SDS011;42292;49.048;8.374;2022-10-10T03:30:31;8.67;;;5.70;;
40503;SDS011;42292;49.048;8.374;2022-10-10T03:32:59;6.50;;;5.50;;
40503;SDS011;42292;49.048;8.374;2022-10-10T03:35:24;7.27;;;4.90;;
40503;SDS011;42292;49.048;8.374;2022-10-10T03:37:52;6.90;;;5.45;;
40503;SDS011;42292;49.048;8.374;2022-10-10T03:40:20;7.25;;;5.72;;
40503;SDS011;42292;49.048;8.374;2022-10-10T03:42:46;7.43;;;5.72;;
40503;SDS011;42292;49.048;8.374;2022-10-10T03:45:12;7.30;;;5.70;;
40503;SDS011;42292;49.048;8.374;2022-10-10T03:47:37;8.35;;;5.57;;
40503;SDS011;42292;49.048;8.374;2022-10-10T03:50:05;7.82;;;5.70;;
40503;SDS011;42292;49.048;8.374;2022-10-10T03:52:31;5.97;;;5.03;;
40503;SDS011;42292;49.048;8.374;2022-10-10T03:54:57;8.70;;;6.07;;
40503;SDS011;42292;49.048;8.374;2022-10-10T03:57:22;8.88;;;5.70;;
40503;SDS011;42292;49.048;8.374;2022-10-10T03:59:48;7.87;;;6.30;;
40503;SDS011;42292;49.048;8.374;2022-10-10T04:02:13;8.23;;;6.27;;
40503;SDS011;42292;49.048;8.374;2022-10-10T04:04:41;7.85;;;6.07;;
40503;SDS011;42292;49.048;8.374;2022-10-10T04:07:07;10.43;;;6.80;;
40503;SDS011;42292;49.048;8.374;2022-10-10T04:09:32;8.67;;;6.00;;
40503;SDS011;42292;49.048;8.374;2022-10-10T04:12:02;7.63;;;5.68;;
40503;SDS011;42292;49.048;8.374;2022-10-10T04:14:30;9.20;;;5.70;;
40503;SDS011;42292;49.048;8.374;2022-10-10T04:16:56;9.80;;;5.55;;
40503;SDS011;42292;49.048;8.374;2022-10-10T04:19:21;6.60;;;5.32;;
40503;SDS011;42292;49.048;8.374;2022-10-10T04:21:47;7.73;;;5.63;;
40503;SDS011;42292;49.048;8.374;2022-10-10T04:24:13;5.70;;;5.00;;
40503;SDS011;42292;49.048;8.374;2022-10-10T04:26:40;17.30;;;14.88;;
40503;SDS011;42292;49.048;8.374;2022-10-10T04:29:08;6.67;;;5.83;;
40503;SDS011;42292;49.048;8.374;2022-10-10T04:31:34;9.70;;;5.50;;
40503;SDS011;42292;49.048;8.374;2022-10-10T04:34:02;7.10;;;5.57;;
40503;SDS011;42292;49.048;8.374;2022-10-10T04:36:28;8.80;;;5.38;;
40503;SDS011;42292;49.048;8.374;2022-10-10T04:38:58;8.23;;;5.50;;
40503;SDS011;42292;49.048;8.374;2022-10-10T04:41:26;7.00;;;5.22;;
40503;SDS011;42292;49.048;8.374;2022-10-10T04:43:53;5.90;;;5.00;;
40503;SDS011;42292;49.048;8.374;2022-10-10T04:46:19;7.25;;;5.63;;
40503;SDS011;42292;49.048;8.374;2022-10-10T04:48:45;7.90;;;5.07;;
40503;SDS011;42292;49.048;8.374;2022-10-10T04:51:11;7.00;;;5.20;;
40503;SDS011;42292;49.048;8.374;2022-10-10T04:53:36;6.18;;;5.25;;
40503;SDS011;42292;49.048;8.374;2022-10-10T04:56:02;7.87;;;4.97;;
40503;SDS011;42292;49.048;8.374;2022-10-10T04:58:30;6.30;;;5.10;;
40503;SDS011;42292;49.048;8.374;2022-10-10T05:00:58;6.50;;;5.40;;
40503;SDS011;42292;49.048;8.374;2022-10-10T05:03:24;8.48;;;4.95;;
40503;SDS011;42292;49.048;8.374;2022-10-10T05:05:52;5.57;;;4.97;;
40503;SDS011;42292;49.048;8.374;2022-10-10T05:08:18;7.20;;;4.97;;
40503;SDS011;42292;49.048;8.374;2022-10-10T05:10:50;6.97;;;5.28;;
40503;SDS011;42292;49.048;8.374;2022-10-10T05:13:16;6.38;;;5.03;;
40503;SDS011;42292;49.048;8.374;2022-10-10T05:15:42;7.07;;;5.30;;
40503;SDS011;42292;49.048;8.374;2022-10-10T05:18:08;7.18;;;5.38;;
40503;SDS011;42292;49.048;8.374;2022-10-10T05:20:34;6.77;;;5.60;;
40503;SDS011;42292;49.048;8.374;2022-10-10T05:23:02;7.07;;;5.25;;
40503;SDS011;42292;49.048;8.374;2022-10-10T05:25:35;6.53;;;5.03;;
40503;SDS011;42292;49.048;8.374;2022-10-10T05:28:03;6.13;;;4.60;;
40503;SDS011;42292;49.048;8.374;2022-10-10T05:30:28;5.50;;;4.70;;
40503;SDS011;42292;49.048;8.374;2022-10-10T05:32:54;7.23;;;5.20;;
40503;SDS011;42292;49.048;8.374;2022-10-10T05:35:20;6.50;;;5.00;;
40503;SDS011;42292;49.048;8.374;2022-10-10T05:37:46;5.85;;;4.43;;
40503;SDS011;42292;49.048;8.374;2022-10-10T05:40:11;6.47;;;4.82;;
40503;SDS011;42292;49.048;8.374;2022-10-10T05:42:40;5.32;;;4.40;;
40503;SDS011;42292;49.048;8.374;2022-10-10T05:45:10;8.45;;;5.43;;
40503;SDS011;42292;49.048;8.374;2022-10-10T05:47:38;6.40;;;5.45;;
40503;SDS011;42292;49.048;8.374;2022-10-10T05:50:04;6.25;;;4.20;;
40503;SDS011;42292;49.048;8.374;2022-10-10T05:52:33;4.45;;;4.05;;
40503;SDS011;42292;49.048;8.374;2022-10-10T05:55:00;5.40;;;4.47;;
40503;SDS011;42292;49.048;8.374;2022-10-10T05:57:28;6.38;;;4.03;;
40503;SDS011;42292;49.048;8.374;2022-10-10T05:59:56;6.40;;;4.47;;
40503;SDS011;42292;49.048;8.374;2022-10-10T06:02:21;6.63;;;4.83;;
40503;SDS011;42292;49.048;8.374;2022-10-10T06:04:52;7.60;;;5.00;;
40503;SDS011;42292;49.048;8.374;2022-10-10T06:07:17;8.20;;;4.90;;
40503;SDS011;42292;49.048;8.374;2022-10-10T06:09:43;8.67;;;4.60;;
40503;SDS011;42292;49.048;8.374;2022-10-10T06:12:08;5.25;;;4.40;;
40503;SDS011;42292;49.048;8.374;2022-10-10T06:14:34;7.10;;;4.97;;
40503;SDS011;42292;49.048;8.374;2022-10-10T06:16:59;6.22;;;5.00;;
40503;SDS011;42292;49.048;8.374;2022-10-10T06:19:27;5.80;;;4.80;;
40503;SDS011;42292;49.048;8.374;2022-10-10T06:21:55;7.13;;;4.60;;
40503;SDS011;42292;49.048;8.374;2022-10-10T06:24:21;7.07;;;4.68;;
40503;SDS011;42292;49.048;8.374;2022-10-10T06:26:47;8.00;;;5.13;;
40503;SDS011;42292;49.048;8.374;2022-10-10T06:29:12;7.68;;;4.55;;
40503;SDS011;42292;49.048;8.374;2022-10-10T06:31:38;7.40;;;4.43;;
40503;SDS011;42292;49.048;8.374;2022-10-10T06:34:05;5.53;;;4.40;;
40503;SDS011;42292;49.048;8.374;2022-10-10T06:36:33;8.48;;;5.15;;
40503;SDS011;42292;49.048;8.374;2022-10-10T06:39:01;6.95;;;5.00;;
40503;SDS011;42292;49.048;8.374;2022-10-10T06:41:29;6.55;;;4.70;;
40503;SDS011;42292;49.048;8.374;2022-10-10T06:43:54;6.32;;;4.78;;
40503;SDS011;42292;49.048;8.374;2022-10-10T06:46:22;8.63;;;5.03;;
40503;SDS011;42292;49.048;8.374;2022-10-10T06:48:50;7.90;;;5.20;;
40503;SDS011;42292;49.048;8.374;2022-10-10T06:51:18;6.85;;;5.32;;
40503;SDS011;42292;49.048;8.374;2022-10-10T06:53:44;6.43;;;5.22;;
40503;SDS011;42292;49.048;8.374;2022-10-10T06:56:11;6.45;;;4.68;;
40503;SDS011;42292;49.048;8.374;2022-10-10T06:58:44;7.75;;;4.65;;
40503;SDS011;42292;49.048;8.374;2022-10-10T07:01:09;7.53;;;4.85;;
40503;SDS011;42292;49.048;8.374;2022-10-10T07:03:38;5.80;;;4.72;;
40503;SDS011;42292;49.048;8.374;2022-10-10T07:06:03;6.47;;;5.03;;
40503;SDS011;42292;49.048;8.374;2022-10-10T07:08:37;8.38;;;5.25;;
40503;SDS011;42292;49.048;8.374;2022-10-10T07:11:03;6.90;;;5.00;;
40503;SDS011;42292;49.048;8.374;2022-10-10T07:13:32;12.38;;;4.47;;
40503;SDS011;42292;49.048;8.374;2022-10-10T07:16:03;5.72;;;4.22;;
40503;SDS011;42292;49.048;8.374;2022-10-10T07:18:32;8.13;;;4.75;;
40503;SDS011;42292;49.048;8.374;2022-10-10T07:21:00;8.83;;;5.17;;
40503;SDS011;42292;49.048;8.374;2022-10-10T07:23:26;8.55;;;4.60;;
40503;SDS011;42292;49.048;8.374;2022-10-10T07:26:04;7.65;;;5.07;;
40503;SDS011;42292;49.048;8.374;2022-10-10T07:28:32;7.20;;;4.90;;
40503;SDS011;42292;49.048;8.374;2022-10-10T07:31:02;6.57;;;5.20;;
40503;SDS011;42292;49.048;8.374;2022-10-10T07:33:30;8.10;;;5.17;;
40503;SDS011;42292;49.048;8.374;2022-10-10T07:35:57;7.72;;;5.38;;
40503;SDS011;42292;49.048;8.374;2022-10-10T07:38:23;7.97;;;5.20;;
40503;SDS011;42292;49.048;8.374;2022-10-10T07:40:51;10.98;;;5.18;;
40503;SDS011;42292;49.048;8.374;2022-10-10T07:43:17;16.17;;;5.68;;
40503;SDS011;42292;49.048;8.374;2022-10-10T07:45:45;10.55;;;5.25;;
40503;SDS011;42292;49.048;8.374;2022-10-10T07:48:11;8.70;;;5.77;;
40503;SDS011;42292;49.048;8.374;2022-10-10T07:50:40;10.57;;;5.60;;
40503;SDS011;42292;49.048;8.374;2022-10-10T07:53:06;9.80;;;6.05;;
40503;SDS011;42292;49.048;8.374;2022-10-10T07:55:33;10.20;;;5.90;;
40503;SDS011;42292;49.048;8.374;2022-10-10T07:58:01;10.15;;;5.55;;
40503;SDS011;42292;49.048;8.374;2022-10-10T08:00:27;8.67;;;5.90;;
40503;SDS011;42292;49.048;8.374;2022-10-10T08:02:57;7.82;;;5.22;;
40503;SDS011;42292;49.048;8.374;2022-10-10T08:05:23;10.20;;;5.32;;
40503;SDS011;42292;49.048;8.374;2022-10-10T08:07:48;8.05;;;5.55;;
40503;SDS011;42292;49.048;8.374;2022-10-10T08:10:14;7.90;;;5.47;;
40503;SDS011;42292;49.048;8.374;2022-10-10T08:12:40;9.48;;;5.72;;
40503;SDS011;42292;49.048;8.374;2022-10-10T08:15:05;10.55;;;6.28;;
40503;SDS011;42292;49.048;8.374;2022-10-10T08:17:33;9.33;;;6.00;;
40503;SDS011;42292;49.048;8.374;2022-10-10T08:19:59;9.00;;;6.00;;
40503;SDS011;42292;49.048;8.374;2022-10-10T08:22:24;12.95;;;6.28;;
40503;SDS011;42292;49.048;8.374;2022-10-10T08:24:50;11.02;;;5.90;;
40503;SDS011;42292;49.048;8.374;2022-10-10T08:27:16;8.55;;;5.70;;
40503;SDS011;42292;49.048;8.374;2022-10-10T08:29:44;8.50;;;5.93;;
40503;SDS011;42292;49.048;8.374;2022-10-10T08:32:13;7.78;;;5.88;;
40503;SDS011;42292;49.048;8.374;2022-10-10T08:34:38;9.83;;;6.23;;
40503;SDS011;42292;49.048;8.374;2022-10-10T08:37:04;9.97;;;5.97;;
40503;SDS011;42292;49.048;8.374;2022-10-10T08:39:29;8.87;;;6.03;;
40503;SDS011;42292;49.048;8.374;2022-10-10T08:41:59;11.63;;;6.30;;
40503;SDS011;42292;49.048;8.374;2022-10-10T08:47:09;10.98;;;5.93;;
40503;SDS011;42292;49.048;8.374;2022-10-10T08:49:45;10.65;;;5.82;;
40503;SDS011;42292;49.048;8.374;2022-10-10T08:55:23;10.07;;;5.95;;
40503;SDS011;42292;49.048;8.374;2022-10-10T08:58:05;9.38;;;6.13;;
40503;SDS011;42292;49.048;8.374;2022-10-10T09:00:58;11.27;;;5.72;;
40503;SDS011;42292;49.048;8.374;2022-10-10T09:03:49;9.60;;;5.95;;
40503;SDS011;42292;49.048;8.374;2022-10-10T09:09:00;8.75;;;5.82;;
40503;SDS011;42292;49.048;8.374;2022-10-10T09:19:25;7.70;;;5.10;;
40503;SDS011;42292;49.048;8.374;2022-10-10T09:21:58;7.05;;;5.28;;
40503;SDS011;42292;49.048;8.374;2022-10-10T09:24:30;7.10;;;5.10;;
40503;SDS011;42292;49.048;8.374;2022-10-10T09:27:06;7.35;;;5.18;;
40503;SDS011;42292;49.048;8.374;2022-10-10T09:29:59;7.65;;;5.03;;
40503;SDS011;42292;49.048;8.374;2022-10-10T09:33:09;9.23;;;4.90;;
40503;SDS011;42292;49.048;8.374;2022-10-10T09:35:32;9.00;;;4.97;;
40503;SDS011;42292;49.048;8.374;2022-10-10T09:41:02;7.72;;;4.72;;
40503;SDS011;42292;49.048;8.374;2022-10-10T09:43:36;10.17;;;4.80;;
40503;SDS011;42292;49.048;8.374;2022-10-10T09:46:05;10.63;;;4.95;;
40503;SDS011;42292;49.048;8.374;2022-10-10T09:48:37;6.70;;;4.75;;
40503;SDS011;42292;49.048;8.374;2022-10-10T09:51:11;9.93;;;4.85;;
40503;SDS011;42292;49.048;8.374;2022-10-10T09:53:43;8.25;;;4.90;;
40503;SDS011;42292;49.048;8.374;2022-10-10T09:56:20;8.43;;;4.43;;
40503;SDS011;42292;49.048;8.374;2022-10-10T09:58:50;8.02;;;5.00;;
40503;SDS011;42292;49.048;8.374;2022-10-10T10:06:46;7.38;;;4.50;;
40503;SDS011;42292;49.048;8.374;2022-10-10T10:09:14;8.00;;;4.40;;
40503;SDS011;42292;49.048;8.374;2022-10-10T10:11:48;7.32;;;4.15;;
40503;SDS011;42292;49.048;8.374;2022-10-10T10:14:26;7.97;;;4.05;;
40503;SDS011;42292;49.048;8.374;2022-10-10T10:16:55;5.73;;;4.40;;
40503;SDS011;42292;49.048;8.374;2022-10-10T10:22:00;9.75;;;4.30;;
40503;SDS011;42292;49.048;8.374;2022-10-10T10:24:30;8.93;;;4.10;;
40503;SDS011;42292;49.048;8.374;2022-10-10T10:27:22;6.72;;;3.75;;
40503;SDS011;42292;49.048;8.374;2022-10-10T10:29:50;8.02;;;4.15;;
40503;SDS011;42292;49.048;8.374;2022-10-10T10:35:31;7.18;;;3.53;;
40503;SDS011;42292;49.048;8.374;2022-10-10T10:38:13;6.93;;;3.70;;
40503;SDS011;42292;49.048;8.374;2022-10-10T10:46:24;7.60;;;3.90;;
40503;SDS011;42292;49.048;8.374;2022-10-10T10:49:01;7.55;;;3.50;;
40503;SDS011;42292;49.048;8.374;2022-10-10T10:51:58;7.32;;;3.97;;
40503;SDS011;42292;49.048;8.374;2022-10-10T10:57:38;8.38;;;3.25;;
40503;SDS011;42292;49.048;8.374;2022-10-10T11:00:29;8.18;;;3.55;;
40503;SDS011;42292;49.048;8.374;2022-10-10T11:03:09;7.65;;;3.60;;
40503;SDS011;42292;49.048;8.374;2022-10-10T11:05:44;8.68;;;3.53;;
40503;SDS011;42292;49.048;8.374;2022-10-10T11:08:42;8.13;;;3.47;;
40503;SDS011;42292;49.048;8.374;2022-10-10T11:11:43;6.10;;;3.50;;
40503;SDS011;42292;49.048;8.374;2022-10-10T11:17:19;5.43;;;3.25;;
40503;SDS011;42292;49.048;8.374;2022-10-10T11:19:54;7.22;;;3.33;;
40503;SDS011;42292;49.048;8.374;2022-10-10T11:22:28;5.47;;;2.95;;
40503;SDS011;42292;49.048;8.374;2022-10-10T11:25:12;10.52;;;3.72;;
40503;SDS011;42292;49.048;8.374;2022-10-10T11:28:03;9.15;;;3.25;;
40503;SDS011;42292;49.048;8.374;2022-10-10T11:30:35;6.03;;;2.85;;
40503;SDS011;42292;49.048;8.374;2022-10-10T11:33:25;7.88;;;3.08;;
40503;SDS011;42292;49.048;8.374;2022-10-10T11:35:57;6.63;;;3.00;;
40503;SDS011;42292;49.048;8.374;2022-10-10T11:38:40;8.60;;;3.10;;
40503;SDS011;42292;49.048;8.374;2022-10-10T11:41:17;8.35;;;3.35;;
40503;SDS011;42292;49.048;8.374;2022-10-10T11:49:27;10.57;;;2.83;;
40503;SDS011;42292;49.048;8.374;2022-10-10T11:52:02;5.82;;;2.47;;
40503;SDS011;42292;49.048;8.374;2022-10-10T11:59:56;8.17;;;2.70;;
40503;SDS011;42292;49.048;8.374;2022-10-10T12:02:32;10.98;;;2.85;;
40503;SDS011;42292;49.048;8.374;2022-10-10T12:05:03;9.18;;;2.63;;
40503;SDS011;42292;49.048;8.374;2022-10-10T12:07:31;6.82;;;2.47;;
40503;SDS011;42292;49.048;8.374;2022-10-10T12:10:15;9.97;;;2.90;;
40503;SDS011;42292;49.048;8.374;2022-10-10T12:16:05;7.28;;;3.13;;
40503;SDS011;42292;49.048;8.374;2022-10-10T12:21:15;6.53;;;2.42;;
40503;SDS011;42292;49.048;8.374;2022-10-10T12:23:43;10.02;;;2.60;;
40503;SDS011;42292;49.048;8.374;2022-10-10T12:26:18;11.23;;;2.90;;
40503;SDS011;42292;49.048;8.374;2022-10-10T12:31:31;7.75;;;2.70;;
40503;SDS011;42292;49.048;8.374;2022-10-10T12:49:56;7.63;;;2.73;;
40503;SDS011;42292;49.048;8.374;2022-10-10T12:52:25;6.95;;;2.17;;
40503;SDS011;42292;49.048;8.374;2022-10-10T12:55:18;9.35;;;3.17;;
40503;SDS011;42292;49.048;8.374;2022-10-10T12:57:56;9.68;;;3.20;;
40503;SDS011;42292;49.048;8.374;2022-10-10T13:00:25;13.50;;;3.40;;
40503;SDS011;42292;49.048;8.374;2022-10-10T13:03:03;9.05;;;3.13;;
40503;SDS011;42292;49.048;8.374;2022-10-10T13:05:42;8.75;;;2.63;;
40503;SDS011;42292;49.048;8.374;2022-10-10T13:08:14;7.93;;;2.90;;
40503;SDS011;42292;49.048;8.374;2022-10-10T13:10:59;8.82;;;2.58;;
40503;SDS011;42292;49.048;8.374;2022-10-10T13:13:25;8.50;;;2.43;;
40503;SDS011;42292;49.048;8.374;2022-10-10T13:15:51;9.80;;;2.67;;
40503;SDS011;42292;49.048;8.374;2022-10-10T13:21:07;12.32;;;3.03;;
40503;SDS011;42292;49.048;8.374;2022-10-10T13:23:41;9.93;;;3.00;;
40503;SDS011;42292;49.048;8.374;2022-10-10T13:28:55;8.60;;;3.20;;
40503;SDS011;42292;49.048;8.374;2022-10-10T13:31:23;10.05;;;2.90;;
40503;SDS011;42292;49.048;8.374;2022-10-10T13:33:54;10.82;;;3.22;;
40503;SDS011;42292;49.048;8.374;2022-10-10T13:36:27;10.82;;;2.60;;
40503;SDS011;42292;49.048;8.374;2022-10-10T13:38:53;9.38;;;2.70;;
40503;SDS011;42292;49.048;8.374;2022-10-10T13:41:19;10.75;;;3.00;;
40503;SDS011;42292;49.048;8.374;2022-10-10T13:43:46;6.88;;;2.42;;
40503;SDS011;42292;49.048;8.374;2022-10-10T13:46:45;12.33;;;2.90;;
40503;SDS011;42292;49.048;8.374;2022-10-10T13:49:12;9.67;;;3.00;;
40503;SDS011;42292;49.048;8.374;2022-10-10T13:51:52;7.50;;;2.70;;
40503;SDS011;42292;49.048;8.374;2022-10-10T13:54:40;8.30;;;2.80;;
40503;SDS011;42292;49.048;8.374;2022-10-10T13:57:10;10.68;;;2.65;;
40503;SDS011;42292;49.048;8.374;2022-10-10T13:59:58;10.55;;;3.28;;
40503;SDS011;42292;49.048;8.374;2022-10-10T14:02:39;9.45;;;2.80;;
40503;SDS011;42292;49.048;8.374;2022-10-10T14:05:11;11.55;;;3.10;;
40503;SDS011;42292;49.048;8.374;2022-10-10T14:07:51;11.82;;;3.47;;
40503;SDS011;42292;49.048;8.374;2022-10-10T14:10:20;8.10;;;2.95;;
40503;SDS011;42292;49.048;8.374;2022-10-10T14:15:36;9.48;;;3.60;;
40503;SDS011;42292;49.048;8.374;2022-10-10T14:18:17;15.45;;;3.28;;
40503;SDS011;42292;49.048;8.374;2022-10-10T14:20:45;11.50;;;2.92;;
40503;SDS011;42292;49.048;8.374;2022-10-10T14:23:13;10.13;;;3.42;;
40503;SDS011;42292;49.048;8.374;2022-10-10T14:25:42;11.50;;;3.20;;
40503;SDS011;42292;49.048;8.374;2022-10-10T14:28:16;11.27;;;2.90;;
40503;SDS011;42292;49.048;8.374;2022-10-10T14:30:42;11.98;;;3.45;;
40503;SDS011;42292;49.048;8.374;2022-10-10T14:33:09;11.47;;;3.43;;
40503;SDS011;42292;49.048;8.374;2022-10-10T14:35:39;9.43;;;3.08;;
40503;SDS011;42292;49.048;8.374;2022-10-10T14:38:05;14.98;;;3.30;;
40503;SDS011;42292;49.048;8.374;2022-10-10T14:40:32;12.32;;;3.65;;
40503;SDS011;42292;49.048;8.374;2022-10-10T14:42:57;10.23;;;3.50;;
40503;SDS011;42292;49.048;8.374;2022-10-10T14:45:25;10.88;;;3.58;;
40503;SDS011;42292;49.048;8.374;2022-10-10T14:47:53;12.00;;;3.30;;
40503;SDS011;42292;49.048;8.374;2022-10-10T14:50:22;14.40;;;3.15;;
40503;SDS011;42292;49.048;8.374;2022-10-10T14:52:53;11.63;;;3.67;;
40503;SDS011;42292;49.048;8.374;2022-10-10T14:55:21;11.13;;;3.10;;
40503;SDS011;42292;49.048;8.374;2022-10-10T14:57:47;11.07;;;3.50;;
40503;SDS011;42292;49.048;8.374;2022-10-10T15:00:14;10.27;;;3.53;;
40503;SDS011;42292;49.048;8.374;2022-10-10T15:02:46;9.65;;;3.30;;
40503;SDS011;42292;49.048;8.374;2022-10-10T15:05:12;13.13;;;3.90;;
40503;SDS011;42292;49.048;8.374;2022-10-10T15:07:38;9.82;;;3.08;;
40503;SDS011;42292;49.048;8.374;2022-10-10T15:10:04;12.27;;;3.28;;
40503;SDS011;42292;49.048;8.374;2022-10-10T15:12:30;12.32;;;3.10;;
40503;SDS011;42292;49.048;8.374;2022-10-10T15:14:57;11.48;;;3.10;;
40503;SDS011;42292;49.048;8.374;2022-10-10T15:17:23;8.47;;;3.03;;
40503;SDS011;42292;49.048;8.374;2022-10-10T15:19:51;10.25;;;3.15;;
40503;SDS011;42292;49.048;8.374;2022-10-10T15:22:17;12.93;;;3.45;;
40503;SDS011;42292;49.048;8.374;2022-10-10T15:24:45;12.70;;;3.40;;
40503;SDS011;42292;49.048;8.374;2022-10-10T15:27:10;11.57;;;3.53;;
40503;SDS011;42292;49.048;8.374;2022-10-10T15:29:39;12.90;;;3.38;;
40503;SDS011;42292;49.048;8.374;2022-10-10T15:32:05;12.18;;;3.53;;
40503;SDS011;42292;49.048;8.374;2022-10-10T15:34:31;13.38;;;3.33;;
40503;SDS011;42292;49.048;8.374;2022-10-10T15:36:56;11.70;;;3.17;;
40503;SDS011;42292;49.048;8.374;2022-10-10T15:39:24;12.63;;;3.50;;
40503;SDS011;42292;49.048;8.374;2022-10-10T15:41:50;12.00;;;3.53;;
40503;SDS011;42292;49.048;8.374;2022-10-10T15:44:16;9.77;;;3.60;;
40503;SDS011;42292;49.048;8.374;2022-10-10T15:46:43;12.70;;;3.33;;
40503;SDS011;42292;49.048;8.374;2022-10-10T15:49:09;11.63;;;3.38;;
40503;SDS011;42292;49.048;8.374;2022-10-10T15:51:41;8.88;;;3.30;;
40503;SDS011;42292;49.048;8.374;2022-10-10T15:54:11;11.25;;;3.60;;
40503;SDS011;42292;49.048;8.374;2022-10-10T15:56:37;10.13;;;3.38;;
40503;SDS011;42292;49.048;8.374;2022-10-10T15:59:03;9.05;;;3.67;;
40503;SDS011;42292;49.048;8.374;2022-10-10T16:01:29;6.65;;;3.10;;
40503;SDS011;42292;49.048;8.374;2022-10-10T16:03:58;11.70;;;3.88;;
40503;SDS011;42292;49.048;8.374;2022-10-10T16:06:26;9.80;;;3.50;;
40503;SDS011;42292;49.048;8.374;2022-10-10T16:08:53;8.15;;;3.42;;
40503;SDS011;42292;49.048;8.374;2022-10-10T16:11:21;10.75;;;5.57;;
40503;SDS011;42292;49.048;8.374;2022-10-10T16:13:48;13.95;;;5.32;;
40503;SDS011;42292;49.048;8.374;2022-10-10T16:16:18;12.68;;;4.22;;
40503;SDS011;42292;49.048;8.374;2022-10-10T16:18:45;11.52;;;4.20;;
40503;SDS011;42292;49.048;8.374;2022-10-10T16:21:14;9.73;;;3.70;;
40503;SDS011;42292;49.048;8.374;2022-10-10T16:23:45;13.05;;;4.25;;
40503;SDS011;42292;49.048;8.374;2022-10-10T16:26:13;10.03;;;3.53;;
40503;SDS011;42292;49.048;8.374;2022-10-10T16:29:02;9.57;;;4.25;;
40503;SDS011;42292;49.048;8.374;2022-10-10T16:31:29;9.07;;;3.80;;
40503;SDS011;42292;49.048;8.374;2022-10-10T16:34:00;8.02;;;4.05;;
40503;SDS011;42292;49.048;8.374;2022-10-10T16:36:27;7.57;;;4.07;;
40503;SDS011;42292;49.048;8.374;2022-10-10T16:38:56;14.55;;;5.28;;
40503;SDS011;42292;49.048;8.374;2022-10-10T16:41:23;9.60;;;4.85;;
40503;SDS011;42292;49.048;8.374;2022-10-10T16:43:51;9.43;;;4.60;;
40503;SDS011;42292;49.048;8.374;2022-10-10T16:46:21;9.67;;;5.47;;
40503;SDS011;42292;49.048;8.374;2022-10-10T16:48:50;12.43;;;6.00;;
40503;SDS011;42292;49.048;8.374;2022-10-10T16:51:17;12.63;;;5.80;;
40503;SDS011;42292;49.048;8.374;2022-10-10T16:53:45;12.57;;;6.53;;
40503;SDS011;42292;49.048;8.374;2022-10-10T16:56:13;10.43;;;6.00;;
40503;SDS011;42292;49.048;8.374;2022-10-10T16:58:40;11.40;;;5.85;;